This is the latest recevied weather packets stored in our database for station/object W2MMD-13. If no packets are shown the sender has not sent any weather packets the latest 10 day(s).
| Time | Temp. | Humidity | Pressure | Rain* | Wind** | Luminosity | Snow |
|---|---|---|---|---|---|---|---|
| 1777760930 | 14.44° C | 42% | - | 0 mm | - | - | - |
| 1777760919 | 14.44° C | 41% | - | 0 mm | - | - | - |
| 1777760319 | 14.44° C | 41% | - | 0 mm | - | - | - |
| 1777759719 | 15° C | 41% | - | 0 mm | - | - | - |
| 1777759119 | 15° C | 42% | - | 0 mm | - | - | - |
| 1777758519 | 15.56° C | 41% | - | 0 mm | - | - | - |
| 1777758074 | 15° C | 42% | - | 0 mm | - | - | - |
| 1777757930 | 15° C | 42% | - | 0 mm | - | - | - |
| 1777757919 | 15° C | 42% | - | 0 mm | - | - | - |
| 1777757319 | 15.56° C | 40% | - | 0 mm | - | - | - |
| 1777756857 | 15.56° C | 43% | - | 0 mm | - | - | - |
| 1777756731 | 15.56° C | 43% | - | 0 mm | - | - | - |
| 1777756720 | 15.56° C | 43% | - | 0 mm | - | - | - |
| 1777756131 | 15.56° C | 41% | - | 0 mm | - | - | - |
| 1777756120 | 15.56° C | 41% | - | 0 mm | - | - | - |
| 1777755520 | 15.56° C | 43% | - | 0 mm | - | - | - |
| 1777754920 | 15.56° C | 43% | - | 0 mm | - | - | - |
| 1777754320 | 16.11° C | 41% | - | 0 mm | - | - | - |
| 1777753731 | 16.67° C | 41% | - | 0 mm | - | - | - |
| 1777753720 | 16.67° C | 41% | - | 0 mm | - | - | - |
| 1777753120 | 16.11° C | 41% | - | 0 mm | - | - | - |
| 1777752520 | 16.11° C | 41% | - | 0 mm | - | - | - |
| 1777751931 | 16.11° C | 42% | - | 0 mm | - | - | - |
| 1777751920 | 16.11° C | 43% | - | 0 mm | - | - | - |
| 1777751320 | 16.67° C | 40% | - | 0 mm | - | - | - |
* Rain latest hour (hover to see other rain measurements)
** Current wind speed in m/s (hover to see current wind gust speed)